KMYR/MYR METAR and TAF weather

Enter ICAO airport designator
Station Type Date Time Source
KMYR METAR 2019/12/13 16:56 UTC NOAA

KMYR 131656Z 35007KT 10SM -RA OVC008 10/09 A3006 RMK AO2 SLP177 P0000 T01000089


Station Type Date Time Source
KMYR Decoded METAR 2019/12/13 16:56 UTC NOAA

Myrtle Beach Air Force Base, SC, United States (KMYR) 33-41N 078-56W 8M
Dec 13, 2019 - 11:56 AM EST / 2019.12.13 1656 UTC
Wind: from the N (350 degrees) at 8 MPH (7 KT):0
Visibility: 10 mile(s):0
Sky conditions: overcast
Weather: light rain
Precipitation last hour: A trace
Temperature: 50.0 F (10.0 C)
Dew Point: 48.0 F (8.9 C)
Relative Humidity: 92%
Pressure (altimeter): 30.06 in. Hg (1017 hPa)
ob: KMYR 131656Z 35007KT 10SM -RA OVC008 10/09 A3006 RMK AO2 SLP177 P0000 T01000089
cycle: 17

Station Type Date Time Source
KMYR TAF 2019/12/13 13:18 UTC NOAA

TAF
AMD KMYR 131315Z 1313/1412 04008KT P6SM VCSH BKN035 OVC150
TEMPO 1314/1315 BKN015
FM131500 07007KT 5SM RA OVC015
FM132300 14008KT 5SM RA OVC006
FM140300 20007KT 2SM SHRA OVC005

Example: see airport list